Moutfort, Luxembourg
Current Conditions -  °F | °C
As of 4:50 AM on Wednesday 28 Jan 2015 (Local Time) from ELLX Reporting Station
Moderate Fog Moderate Fog  
Wind Chill: 29°   Ceiling: 200
Heat Index: 34°   Visibility: 0.43mi
Dew Point: 34°   Wind: 6mph
Humidity: 100%   Direction: 200°SSW
Pressure: 30.09"   Gusts: NA
Location:  49.59°N, 6.26°E
Report Text: ELLX 280350Z 20005KT 0700 R24/P1500N FG SCT001 BKN002 01/01 Q1019 NOSIG
Loading
Personal Weather Stations






























Interactive Weather Map New forecast layout! Learn more

10-Day Weather Forecast

Advertisements
Track Severe Weather on mobile